createdAt,value
2023-05-06T00:00:55.812Z,93943.22
2023-05-06T00:05:57.481Z,93931.69
2023-05-06T00:11:00.451Z,93932.34
2023-05-06T00:16:02.126Z,93919.94
2023-05-06T00:21:04.125Z,93920.97
2023-05-06T00:26:12.584Z,93910.56
2023-05-06T00:31:14.268Z,93919.59
2023-05-06T00:36:15.996Z,93900.63
2023-05-06T00:41:18.929Z,93896.97
2023-05-06T00:46:23.299Z,93896.78
2023-05-06T00:51:26.672Z,93896.69
2023-05-06T00:56:29.839Z,93895.09
2023-05-06T01:01:31.707Z,93898.53
2023-05-06T01:06:42.507Z,93903.72
2023-05-06T01:11:49.936Z,93900.22
2023-05-06T01:16:55.382Z,93902.09
2023-05-06T01:22:01.598Z,93907.03
2023-05-06T01:32:36.334Z,93931.63
2023-05-06T01:37:45.402Z,93929.84
2023-05-06T01:42:48.610Z,93928.22
2023-05-06T01:47:50.890Z,93918.69
2023-05-06T01:52:59.567Z,93909.50
2023-05-06T01:58:04.680Z,93918.69
2023-05-06T02:03:06.362Z,93919.88
2023-05-06T02:08:07.999Z,93914.28
2023-05-06T02:13:11.264Z,93907.50
2023-05-06T02:18:12.929Z,93919.53
2023-05-06T02:23:14.532Z,93918.34
2023-05-06T02:28:17.417Z,93910.88
2023-05-06T02:33:19.060Z,93908.25
2023-05-06T02:38:21.764Z,93903.22
2023-05-06T02:43:27.119Z,93898.34
2023-05-06T02:48:28.737Z,93896.09
2023-05-06T02:53:30.403Z,93906.78
2023-05-06T02:58:35.586Z,93894.69
2023-05-06T03:03:37.194Z,93885.13
2023-05-06T03:08:45.891Z,93887.94
2023-05-06T03:13:48.881Z,93892.38
2023-05-06T03:18:50.463Z,93885.25
2023-05-06T03:23:52.013Z,93885.84
2023-05-06T03:28:54.962Z,93887.56
2023-05-06T03:33:58.886Z,93884.03
2023-05-06T03:39:00.493Z,93885.59
2023-05-06T03:44:03.526Z,93876.25
2023-05-06T03:49:05.161Z,93877.91
2023-05-06T03:54:06.870Z,93877.38
2023-05-06T03:59:09.749Z,93889.19
2023-05-06T04:04:11.344Z,93888.41
2023-05-06T04:09:15.173Z,93894.34
2023-05-06T04:14:20.785Z,93887.56
2023-05-06T04:24:38.427Z,93901.03
2023-05-06T04:29:41.542Z,93890.03
2023-05-06T04:34:45.713Z,93901.78
2023-05-06T04:39:48.588Z,93915.50
2023-05-06T04:44:54.273Z,93909.81
2023-05-06T04:49:55.834Z,93898.53
2023-05-06T04:54:57.402Z,93902.06
2023-05-06T05:00:00.467Z,93907.50
2023-05-06T05:05:02.294Z,93917.91
2023-05-06T05:10:04.753Z,93916.25
2023-05-06T05:15:09.140Z,93914.03
2023-05-06T05:20:11.550Z,93914.72
2023-05-06T05:25:13.339Z,93915.84
2023-05-06T05:30:18.441Z,93919.47
2023-05-06T05:35:22.378Z,93919.25
2023-05-06T05:40:24.050Z,93919.97
2023-05-06T05:45:28.111Z,93920.53
2023-05-06T05:50:29.776Z,93928.66
2023-05-06T05:55:31.385Z,93927.69
2023-05-06T06:00:34.260Z,93924.84
2023-05-06T06:05:35.960Z,93923.22
2023-05-06T06:10:37.558Z,93934.19
2023-05-06T06:15:43.127Z,93930.28
2023-05-06T06:20:44.792Z,93930.53
2023-05-06T06:25:46.383Z,93941.97
2023-05-06T06:30:49.341Z,93941.13
2023-05-06T06:35:50.905Z,93931.50
2023-05-06T06:40:52.437Z,93929.25
2023-05-06T06:45:55.519Z,93939.28
2023-05-06T06:50:57.176Z,93938.16
2023-05-06T06:55:58.733Z,93936.75
2023-05-06T07:01:01.718Z,93928.53
2023-05-06T07:06:03.714Z,93928.59
2023-05-06T07:11:07.672Z,93940.69
2023-05-06T07:16:13.064Z,93944.94
2023-05-06T07:21:14.700Z,93949.53
2023-05-06T07:26:16.252Z,93949.16
2023-05-06T07:31:21.598Z,93962.16
2023-05-06T07:36:25.432Z,93949.97
2023-05-06T07:41:29.390Z,93959.59
2023-05-06T07:46:32.778Z,93963.50
2023-05-06T07:51:36.808Z,93974.09
2023-05-06T07:56:38.544Z,93966.66
2023-05-06T08:01:41.503Z,93973.16
2023-05-06T08:06:50.508Z,93977.97
2023-05-06T08:11:55.442Z,93976.88
2023-05-06T08:16:58.453Z,93979.66
2023-05-06T08:22:01.314Z,93977.03
2023-05-06T08:27:02.880Z,93984.59
2023-05-06T08:32:06.064Z,93990.09
2023-05-06T08:37:07.790Z,93991.06
2023-05-06T08:42:12.874Z,93987.25
2023-05-06T08:47:18.591Z,93980.16
2023-05-06T08:52:20.529Z,93980.50
2023-05-06T08:57:23.874Z,93977.19
2023-05-06T09:02:28.543Z,93976.16
2023-05-06T09:07:30.330Z,93987.13
2023-05-06T09:12:31.929Z,93990.72
2023-05-06T09:17:40.228Z,93998.81
2023-05-06T09:22:45.527Z,93989.28
2023-05-06T09:27:47.081Z,93981.75
2023-05-06T09:33:05.240Z,93986.03
2023-05-06T09:38:07.688Z,93979.53
2023-05-06T09:43:11.726Z,93977.06
2023-05-06T09:48:15.018Z,93971.28
2023-05-06T09:53:18.505Z,93980.78
2023-05-06T09:58:20.989Z,93964.38
2023-05-06T10:03:24.999Z,93955.75
2023-05-06T10:08:27.182Z,93951.69
2023-05-06T10:13:30.075Z,93947.72
2023-05-06T10:18:35.006Z,93945.59
2023-05-06T10:23:46.198Z,93939.59
2023-05-06T10:28:52.921Z,93927.13
2023-05-06T10:33:59.635Z,93923.66
2023-05-06T10:39:03.370Z,93919.91
2023-05-06T10:44:05.080Z,93914.50
2023-05-06T10:49:17.619Z,93916.44
2023-05-06T10:54:26.028Z,93920.22
2023-05-06T10:59:30.031Z,93916.53
2023-05-06T11:04:33.728Z,93916.78
2023-05-06T11:09:56.683Z,93903.44
2023-05-06T11:15:24.730Z,93899.59
2023-05-06T11:20:27.593Z,93893.75
2023-05-06T11:25:45.506Z,93895.63
2023-05-06T11:30:55.157Z,93894.72
2023-05-06T11:35:59.362Z,93903.78
2023-05-06T11:46:19.054Z,93905.91
2023-05-06T11:51:26.544Z,93903.97
2023-05-06T11:56:31.805Z,93893.78
2023-05-06T12:01:33.658Z,93887.69
2023-05-06T12:06:37.208Z,93879.72
2023-05-06T12:11:40.675Z,93882.28
2023-05-06T12:16:43.678Z,93880.09
2023-05-06T12:21:46.880Z,93890.03
2023-05-06T12:33:05.631Z,93884.56
2023-05-06T12:38:12.955Z,93881.91
2023-05-06T12:43:14.587Z,93880.22
2023-05-06T12:48:18.774Z,93873.78
2023-05-06T12:53:36.708Z,93879.81
2023-05-06T12:58:38.531Z,93876.25
2023-05-06T13:03:42.850Z,93871.81
2023-05-06T13:08:48.324Z,93866.50
2023-05-06T13:13:49.859Z,93860.75
2023-05-06T13:18:51.446Z,93859.38
2023-05-06T13:23:54.940Z,93846.41
2023-05-06T13:28:56.514Z,93847.25
2023-05-06T13:33:58.314Z,93844.28
2023-05-06T13:39:01.363Z,93839.19
2023-05-06T13:44:04.262Z,93831.00
2023-05-06T13:49:05.847Z,93827.59
2023-05-06T13:54:08.859Z,93824.59
2023-05-06T13:59:12.468Z,93824.09
2023-05-06T14:04:16.595Z,93818.63
2023-05-06T14:09:19.591Z,93820.09
2023-05-06T14:14:21.134Z,93816.06
2023-05-06T14:19:22.719Z,93813.75
2023-05-06T14:24:25.770Z,93803.72
2023-05-06T14:29:27.493Z,93811.69
2023-05-06T14:34:31.615Z,93806.25
2023-05-06T14:39:36.861Z,93807.34
2023-05-06T14:44:38.396Z,93801.09
2023-05-06T14:49:40.044Z,93798.06
2023-05-06T14:54:45.926Z,93797.97
2023-05-06T14:59:47.794Z,93793.31
2023-05-06T15:04:49.412Z,93792.31
2023-05-06T15:09:52.307Z,93793.16
2023-05-06T15:14:54.218Z,93790.72
2023-05-06T15:19:57.890Z,93794.09
2023-05-06T15:25:12.378Z,93792.41
2023-05-06T15:30:18.903Z,93794.75
2023-05-06T15:35:20.704Z,93797.53
2023-05-06T15:46:28.065Z,93796.00
2023-05-06T15:51:30.243Z,93792.63
2023-05-06T15:56:39.351Z,93779.97
2023-05-06T16:02:16.591Z,93789.94
2023-05-06T16:07:08.090Z,93789.38
2023-05-06T16:12:09.696Z,93792.56
2023-05-06T16:17:15.284Z,93779.44
2023-05-06T16:22:19.061Z,93777.22
2023-05-06T16:27:27.861Z,93780.91
2023-05-06T16:32:30.868Z,93784.66
2023-05-06T16:37:34.474Z,93779.22
2023-05-06T16:42:37.221Z,93770.63
2023-05-06T16:47:44.189Z,93778.94
2023-05-06T16:52:48.285Z,93785.81
2023-05-06T16:57:51.961Z,93782.66
2023-05-06T17:02:55.065Z,93775.06
2023-05-06T17:07:59.646Z,93780.50
2023-05-06T17:13:01.251Z,93781.16
2023-05-06T17:18:04.318Z,93776.94
2023-05-06T17:23:08.636Z,93767.22
2023-05-06T17:28:15.191Z,93764.38
2023-05-06T17:33:21.080Z,93759.75
2023-05-06T17:38:24.711Z,93761.97
2023-05-06T17:43:26.282Z,93757.69
2023-05-06T17:48:29.253Z,93750.31
2023-05-06T17:53:30.830Z,93759.44
2023-05-06T17:58:32.370Z,93748.03
2023-05-06T18:03:39.033Z,93748.19
2023-05-06T18:08:40.671Z,93747.38
2023-05-06T18:13:45.027Z,93744.38
2023-05-06T18:18:48.048Z,93747.91
2023-05-06T18:23:58.724Z,93752.44
2023-05-06T18:29:07.174Z,93764.31
2023-05-06T18:34:10.204Z,93764.91
2023-05-06T18:39:14.412Z,93771.19
2023-05-06T18:44:16.078Z,93775.63
2023-05-06T18:49:19.031Z,93787.94
2023-05-06T18:54:20.726Z,93791.22
2023-05-06T18:59:25.642Z,93805.22
2023-05-06T19:04:40.178Z,93805.09
2023-05-06T19:09:44.509Z,93806.41
2023-05-06T19:20:52.015Z,93805.00
2023-05-06T19:25:54.375Z,93812.66
2023-05-06T19:30:58.313Z,93814.16
2023-05-06T19:36:01.290Z,93811.06
2023-05-06T19:41:05.567Z,93818.94
2023-05-06T19:46:07.180Z,93819.06
2023-05-06T19:51:10.226Z,93823.56
2023-05-06T19:56:13.103Z,93821.63
2023-05-06T20:01:14.876Z,93825.00
2023-05-06T20:06:17.905Z,93814.72
2023-05-06T20:11:19.563Z,93816.56
2023-05-06T20:16:21.161Z,93815.94
2023-05-06T20:21:24.111Z,93811.41
2023-05-06T20:26:25.809Z,93820.88
2023-05-06T20:31:27.466Z,93825.03
2023-05-06T20:36:32.959Z,93820.88
2023-05-06T20:41:36.689Z,93816.38
2023-05-06T20:46:41.865Z,93816.81
2023-05-06T20:51:44.856Z,93820.16
2023-05-06T20:56:46.473Z,93809.16
2023-05-06T21:01:48.095Z,93807.56
2023-05-06T21:06:51.127Z,93810.53
2023-05-06T21:11:55.179Z,93808.00
2023-05-06T21:16:58.901Z,93817.81
2023-05-06T21:22:02.749Z,93810.78
2023-05-06T21:27:17.283Z,93824.53
2023-05-06T21:32:21.251Z,93823.72
2023-05-06T21:37:24.290Z,93819.75
2023-05-06T21:42:27.671Z,93821.19
2023-05-06T21:47:29.374Z,93809.94
2023-05-06T21:52:34.629Z,93807.03
2023-05-06T21:57:36.257Z,93804.09
2023-05-06T22:02:38.036Z,93803.19
2023-05-06T22:07:41.001Z,93799.50
2023-05-06T22:12:42.584Z,93802.53
2023-05-06T22:17:44.248Z,93796.13
2023-05-06T22:22:47.256Z,93799.59
2023-05-06T22:27:48.865Z,93806.75
2023-05-06T22:32:52.970Z,93801.38
2023-05-06T22:37:56.004Z,93793.75
2023-05-06T22:42:57.569Z,93788.81
2023-05-06T22:47:59.235Z,93792.06
2023-05-06T22:53:13.663Z,93790.38
2023-05-06T22:58:16.887Z,93778.94
2023-05-06T23:03:18.578Z,93778.19
2023-05-06T23:08:23.697Z,93780.03
2023-05-06T23:13:25.458Z,93786.44
2023-05-06T23:18:27.239Z,93777.16
2023-05-06T23:23:30.383Z,93778.03
2023-05-06T23:28:31.986Z,93773.75
2023-05-06T23:33:33.587Z,93771.41
2023-05-06T23:38:44.201Z,93775.66
2023-05-06T23:43:45.846Z,93767.03
2023-05-06T23:48:49.533Z,93768.44
2023-05-06T23:53:53.878Z,93769.50
2023-05-06T23:58:55.505Z,93776.41
